sensor_id;sensor_type;location;lat;lon;timestamp;pressure;altitude;pressure_sealevel;temperature;humidity
59513;BME280;45330;51.634;5.562;2024-03-08T00:00:14;101746.63;;;2.07;100.00
59513;BME280;45330;51.634;5.562;2024-03-08T00:02:39;101750.88;;;2.06;100.00
59513;BME280;45330;51.634;5.562;2024-03-08T00:05:06;101755.81;;;2.02;100.00
59513;BME280;45330;51.634;5.562;2024-03-08T00:07:31;101746.03;;;1.93;100.00
59513;BME280;45330;51.634;5.562;2024-03-08T00:09:57;101745.00;;;1.89;100.00
59513;BME280;45330;51.634;5.562;2024-03-08T00:12:23;101746.63;;;1.87;100.00
59513;BME280;45330;51.634;5.562;2024-03-08T00:14:51;101731.84;;;1.82;100.00
59513;BME280;45330;51.634;5.562;2024-03-08T00:17:16;101749.09;;;1.84;100.00
59513;BME280;45330;51.634;5.562;2024-03-08T00:19:42;101736.69;;;1.76;100.00
59513;BME280;45330;51.634;5.562;2024-03-08T00:22:07;101731.56;;;1.76;100.00
59513;BME280;45330;51.634;5.562;2024-03-08T00:24:33;101731.63;;;1.77;100.00
59513;BME280;45330;51.634;5.562;2024-03-08T00:26:58;101728.53;;;1.65;100.00
59513;BME280;45330;51.634;5.562;2024-03-08T00:29:24;101730.56;;;1.72;100.00
59513;BME280;45330;51.634;5.562;2024-03-08T00:31:49;101731.16;;;1.66;100.00
59513;BME280;45330;51.634;5.562;2024-03-08T00:34:15;101742.38;;;1.68;100.00
59513;BME280;45330;51.634;5.562;2024-03-08T00:36:41;101731.31;;;1.69;100.00
59513;BME280;45330;51.634;5.562;2024-03-08T00:39:06;101732.16;;;1.70;100.00
59513;BME280;45330;51.634;5.562;2024-03-08T00:41:32;101729.41;;;1.65;100.00
59513;BME280;45330;51.634;5.562;2024-03-08T00:43:58;101724.28;;;1.65;100.00
59513;BME280;45330;51.634;5.562;2024-03-08T00:46:23;101715.47;;;1.60;100.00
59513;BME280;45330;51.634;5.562;2024-03-08T00:48:49;101714.69;;;1.61;100.00
59513;BME280;45330;51.634;5.562;2024-03-08T00:51:14;101712.00;;;1.58;100.00
59513;BME280;45330;51.634;5.562;2024-03-08T00:53:41;101708.69;;;1.61;100.00
59513;BME280;45330;51.634;5.562;2024-03-08T00:56:08;101706.19;;;1.62;100.00
59513;BME280;45330;51.634;5.562;2024-03-08T00:58:36;101703.25;;;1.54;100.00
59513;BME280;45330;51.634;5.562;2024-03-08T01:01:02;101700.44;;;1.48;100.00
59513;BME280;45330;51.634;5.562;2024-03-08T01:03:28;101695.31;;;1.48;100.00
59513;BME280;45330;51.634;5.562;2024-03-08T01:05:57;101685.06;;;1.48;100.00
59513;BME280;45330;51.634;5.562;2024-03-08T01:08:22;101690.19;;;1.48;100.00
59513;BME280;45330;51.634;5.562;2024-03-08T01:10:48;101690.84;;;1.44;100.00
59513;BME280;45330;51.634;5.562;2024-03-08T01:13:16;101677.84;;;1.40;100.00
59513;BME280;45330;51.634;5.562;2024-03-08T01:15:41;101683.03;;;1.41;100.00
59513;BME280;45330;51.634;5.562;2024-03-08T01:18:07;101678.81;;;1.43;100.00
59513;BME280;45330;51.634;5.562;2024-03-08T01:20:33;101672.09;;;1.45;100.00
59513;BME280;45330;51.634;5.562;2024-03-08T01:22:58;101673.56;;;1.40;100.00
59513;BME280;45330;51.634;5.562;2024-03-08T01:25:23;101663.13;;;1.35;100.00
59513;BME280;45330;51.634;5.562;2024-03-08T01:27:49;101665.00;;;1.40;100.00
59513;BME280;45330;51.634;5.562;2024-03-08T01:30:14;101663.44;;;1.43;100.00
59513;BME280;45330;51.634;5.562;2024-03-08T01:32:43;101666.75;;;1.41;100.00
59513;BME280;45330;51.634;5.562;2024-03-08T01:35:09;101665.81;;;1.39;100.00
59513;BME280;45330;51.634;5.562;2024-03-08T01:37:34;101662.97;;;1.32;100.00
59513;BME280;45330;51.634;5.562;2024-03-08T01:40:00;101661.88;;;1.27;100.00
59513;BME280;45330;51.634;5.562;2024-03-08T01:42:25;101656.56;;;1.23;100.00
59513;BME280;45330;51.634;5.562;2024-03-08T01:44:51;101660.00;;;1.23;100.00
59513;BME280;45330;51.634;5.562;2024-03-08T01:47:17;101661.25;;;1.13;100.00
59513;BME280;45330;51.634;5.562;2024-03-08T01:49:43;101668.00;;;1.11;100.00
59513;BME280;45330;51.634;5.562;2024-03-08T01:52:09;101649.91;;;1.08;100.00
59513;BME280;45330;51.634;5.562;2024-03-08T01:54:36;101658.19;;;1.02;100.00
59513;BME280;45330;51.634;5.562;2024-03-08T01:57:02;101649.44;;;0.97;100.00
59513;BME280;45330;51.634;5.562;2024-03-08T01:59:28;101638.81;;;0.90;100.00
59513;BME280;45330;51.634;5.562;2024-03-08T02:02:00;101632.91;;;0.91;100.00
59513;BME280;45330;51.634;5.562;2024-03-08T02:04:27;101639.78;;;0.92;100.00
59513;BME280;45330;51.634;5.562;2024-03-08T02:06:53;101642.19;;;0.89;100.00
59513;BME280;45330;51.634;5.562;2024-03-08T02:09:18;101631.84;;;0.87;100.00
59513;BME280;45330;51.634;5.562;2024-03-08T02:11:45;101628.50;;;0.88;100.00
59513;BME280;45330;51.634;5.562;2024-03-08T02:14:10;101637.75;;;0.84;100.00
59513;BME280;45330;51.634;5.562;2024-03-08T02:16:36;101628.28;;;0.83;100.00
59513;BME280;45330;51.634;5.562;2024-03-08T02:19:03;101626.75;;;0.87;100.00
59513;BME280;45330;51.634;5.562;2024-03-08T02:21:28;101622.44;;;0.86;100.00
59513;BME280;45330;51.634;5.562;2024-03-08T02:23:55;101629.81;;;0.80;100.00
59513;BME280;45330;51.634;5.562;2024-03-08T02:26:20;101607.50;;;0.77;100.00
59513;BME280;45330;51.634;5.562;2024-03-08T02:28:46;101615.34;;;0.80;100.00
59513;BME280;45330;51.634;5.562;2024-03-08T02:31:12;101608.31;;;0.76;100.00
59513;BME280;45330;51.634;5.562;2024-03-08T02:33:37;101608.25;;;0.75;100.00
59513;BME280;45330;51.634;5.562;2024-03-08T02:36:03;101603.13;;;0.75;100.00
59513;BME280;45330;51.634;5.562;2024-03-08T02:38:29;101599.53;;;0.71;100.00
59513;BME280;45330;51.634;5.562;2024-03-08T02:40:55;101593.31;;;0.66;100.00
59513;BME280;45330;51.634;5.562;2024-03-08T02:43:21;101582.66;;;0.57;100.00
59513;BME280;45330;51.634;5.562;2024-03-08T02:45:50;101599.09;;;0.62;100.00
59513;BME280;45330;51.634;5.562;2024-03-08T02:48:18;101597.31;;;0.59;100.00
59513;BME280;45330;51.634;5.562;2024-03-08T02:50:47;101592.97;;;0.58;100.00
59513;BME280;45330;51.634;5.562;2024-03-08T02:53:12;101591.41;;;0.62;100.00
59513;BME280;45330;51.634;5.562;2024-03-08T02:55:41;101593.13;;;0.61;100.00
59513;BME280;45330;51.634;5.562;2024-03-08T02:58:07;101584.31;;;0.56;100.00
59513;BME280;45330;51.634;5.562;2024-03-08T03:00:36;101583.31;;;0.53;100.00
59513;BME280;45330;51.634;5.562;2024-03-08T03:03:02;101576.31;;;0.48;100.00
59513;BME280;45330;51.634;5.562;2024-03-08T03:05:28;101573.75;;;0.48;100.00
59513;BME280;45330;51.634;5.562;2024-03-08T03:07:55;101572.06;;;0.49;100.00
59513;BME280;45330;51.634;5.562;2024-03-08T03:10:21;101567.81;;;0.49;100.00
59513;BME280;45330;51.634;5.562;2024-03-08T03:12:49;101557.50;;;0.48;100.00
59513;BME280;45330;51.634;5.562;2024-03-08T03:15:15;101566.13;;;0.50;100.00
59513;BME280;45330;51.634;5.562;2024-03-08T03:17:50;101566.19;;;0.51;100.00
59513;BME280;45330;51.634;5.562;2024-03-08T03:20:17;101559.19;;;0.47;100.00
59513;BME280;45330;51.634;5.562;2024-03-08T03:22:48;101559.19;;;0.47;100.00
59513;BME280;45330;51.634;5.562;2024-03-08T03:25:20;101554.78;;;0.45;100.00
59513;BME280;45330;51.634;5.562;2024-03-08T03:27:54;101556.22;;;0.38;100.00
59513;BME280;45330;51.634;5.562;2024-03-08T03:30:23;101550.63;;;0.29;100.00
59513;BME280;45330;51.634;5.562;2024-03-08T03:32:52;101556.56;;;0.28;100.00
59513;BME280;45330;51.634;5.562;2024-03-08T03:35:17;101548.09;;;0.29;100.00
59513;BME280;45330;51.634;5.562;2024-03-08T03:37:43;101553.94;;;0.26;100.00
59513;BME280;45330;51.634;5.562;2024-03-08T03:40:27;101538.22;;;0.19;100.00
59513;BME280;45330;51.634;5.562;2024-03-08T03:42:53;101538.28;;;0.20;100.00
59513;BME280;45330;51.634;5.562;2024-03-08T03:45:19;101540.19;;;0.24;100.00
59513;BME280;45330;51.634;5.562;2024-03-08T03:47:45;101528.13;;;0.22;100.00
59513;BME280;45330;51.634;5.562;2024-03-08T03:50:11;101520.06;;;0.14;100.00
59513;BME280;45330;51.634;5.562;2024-03-08T03:52:36;101529.66;;;0.18;100.00
59513;BME280;45330;51.634;5.562;2024-03-08T03:55:02;101541.56;;;0.17;100.00
59513;BME280;45330;51.634;5.562;2024-03-08T03:57:29;101533.03;;;0.17;100.00
59513;BME280;45330;51.634;5.562;2024-03-08T03:59:55;101537.56;;;0.23;100.00
59513;BME280;45330;51.634;5.562;2024-03-08T04:02:20;101526.81;;;0.12;100.00
59513;BME280;45330;51.634;5.562;2024-03-08T04:04:47;101532.13;;;0.16;100.00
59513;BME280;45330;51.634;5.562;2024-03-08T04:07:13;101532.78;;;0.12;100.00
59513;BME280;45330;51.634;5.562;2024-03-08T04:09:38;101531.53;;;0.04;100.00
59513;BME280;45330;51.634;5.562;2024-03-08T04:12:04;101526.28;;;0.01;100.00
59513;BME280;45330;51.634;5.562;2024-03-08T04:14:30;101518.13;;;-0.10;100.00
59513;BME280;45330;51.634;5.562;2024-03-08T04:16:55;101525.78;;;-0.10;100.00
59513;BME280;45330;51.634;5.562;2024-03-08T04:19:20;101511.81;;;-0.16;100.00
59513;BME280;45330;51.634;5.562;2024-03-08T04:21:46;101513.88;;;-0.09;100.00
59513;BME280;45330;51.634;5.562;2024-03-08T04:24:12;101517.44;;;-0.06;100.00
59513;BME280;45330;51.634;5.562;2024-03-08T04:26:37;101516.56;;;-0.06;100.00
59513;BME280;45330;51.634;5.562;2024-03-08T04:29:03;101513.94;;;-0.08;100.00
59513;BME280;45330;51.634;5.562;2024-03-08T04:31:28;101517.38;;;-0.07;100.00
59513;BME280;45330;51.634;5.562;2024-03-08T04:33:56;101515.13;;;-0.01;100.00
59513;BME280;45330;51.634;5.562;2024-03-08T04:36:22;101506.34;;;-0.06;100.00
59513;BME280;45330;51.634;5.562;2024-03-08T04:38:48;101515.03;;;-0.03;100.00
59513;BME280;45330;51.634;5.562;2024-03-08T04:41:14;101514.00;;;-0.06;100.00
59513;BME280;45330;51.634;5.562;2024-03-08T04:43:39;101512.25;;;-0.07;100.00
59513;BME280;45330;51.634;5.562;2024-03-08T04:46:05;101505.41;;;-0.08;100.00
59513;BME280;45330;51.634;5.562;2024-03-08T04:48:30;101506.06;;;-0.12;100.00
59513;BME280;45330;51.634;5.562;2024-03-08T04:50:56;101498.25;;;-0.15;100.00
59513;BME280;45330;51.634;5.562;2024-03-08T04:53:21;101503.19;;;-0.19;100.00
59513;BME280;45330;51.634;5.562;2024-03-08T04:55:47;101505.75;;;-0.19;100.00
59513;BME280;45330;51.634;5.562;2024-03-08T04:58:12;101505.81;;;-0.17;100.00
59513;BME280;45330;51.634;5.562;2024-03-08T05:00:38;101498.06;;;-0.19;100.00
59513;BME280;45330;51.634;5.562;2024-03-08T05:03:03;101491.28;;;-0.18;100.00
59513;BME280;45330;51.634;5.562;2024-03-08T05:05:30;101484.19;;;-0.24;100.00
59513;BME280;45330;51.634;5.562;2024-03-08T05:07:55;101483.53;;;-0.20;100.00
59513;BME280;45330;51.634;5.562;2024-03-08T05:10:21;101476.53;;;-0.24;100.00
59513;BME280;45330;51.634;5.562;2024-03-08T05:12:47;101488.56;;;-0.21;100.00
59513;BME280;45330;51.634;5.562;2024-03-08T05:15:12;101485.22;;;-0.20;100.00
59513;BME280;45330;51.634;5.562;2024-03-08T05:17:37;101474.63;;;-0.28;100.00
59513;BME280;45330;51.634;5.562;2024-03-08T05:20:05;101483.75;;;-0.33;100.00
59513;BME280;45330;51.634;5.562;2024-03-08T05:22:33;101473.16;;;-0.41;100.00
59513;BME280;45330;51.634;5.562;2024-03-08T05:24:58;101482.81;;;-0.35;100.00
59513;BME280;45330;51.634;5.562;2024-03-08T05:27:24;101483.09;;;-0.29;100.00
59513;BME280;45330;51.634;5.562;2024-03-08T05:29:49;101467.59;;;-0.32;100.00
59513;BME280;45330;51.634;5.562;2024-03-08T05:32:15;101476.28;;;-0.28;100.00
59513;BME280;45330;51.634;5.562;2024-03-08T05:34:40;101460.50;;;-0.38;100.00
59513;BME280;45330;51.634;5.562;2024-03-08T05:37:05;101466.50;;;-0.37;100.00
59513;BME280;45330;51.634;5.562;2024-03-08T05:39:32;101466.63;;;-0.34;100.00
59513;BME280;45330;51.634;5.562;2024-03-08T05:41:57;101473.50;;;-0.33;100.00
59513;BME280;45330;51.634;5.562;2024-03-08T05:44:23;101458.59;;;-0.42;100.00
59513;BME280;45330;51.634;5.562;2024-03-08T05:46:48;101466.41;;;-0.39;100.00
59513;BME280;45330;51.634;5.562;2024-03-08T05:49:14;101464.72;;;-0.38;100.00
59513;BME280;45330;51.634;5.562;2024-03-08T05:51:40;101458.22;;;-0.49;100.00
59513;BME280;45330;51.634;5.562;2024-03-08T05:54:11;101461.22;;;-0.40;100.00
59513;BME280;45330;51.634;5.562;2024-03-08T05:56:38;101458.53;;;-0.43;100.00
59513;BME280;45330;51.634;5.562;2024-03-08T05:59:03;101452.53;;;-0.44;100.00
59513;BME280;45330;51.634;5.562;2024-03-08T06:01:29;101449.38;;;-0.38;100.00
59513;BME280;45330;51.634;5.562;2024-03-08T06:03:56;101457.13;;;-0.37;100.00
59513;BME280;45330;51.634;5.562;2024-03-08T06:06:22;101449.25;;;-0.41;100.00
59513;BME280;45330;51.634;5.562;2024-03-08T06:08:49;101458.75;;;-0.39;100.00
59513;BME280;45330;51.634;5.562;2024-03-08T06:11:15;101440.25;;;-0.51;100.00
59513;BME280;45330;51.634;5.562;2024-03-08T06:13:42;101449.91;;;-0.45;100.00
59513;BME280;45330;51.634;5.562;2024-03-08T06:16:08;101448.06;;;-0.48;100.00
59513;BME280;45330;51.634;5.562;2024-03-08T06:18:36;101444.56;;;-0.50;100.00
59513;BME280;45330;51.634;5.562;2024-03-08T06:21:04;101446.53;;;-0.44;100.00
59513;BME280;45330;51.634;5.562;2024-03-08T06:23:34;101441.38;;;-0.46;100.00
59513;BME280;45330;51.634;5.562;2024-03-08T06:26:04;101457.88;;;-0.39;100.00
59513;BME280;45330;51.634;5.562;2024-03-08T06:28:30;101441.97;;;-0.33;100.00
59513;BME280;45330;51.634;5.562;2024-03-08T06:30:55;101431.50;;;-0.38;100.00
59513;BME280;45330;51.634;5.562;2024-03-08T06:33:21;101442.03;;;-0.32;100.00
59513;BME280;45330;51.634;5.562;2024-03-08T06:35:46;101440.47;;;-0.28;100.00
59513;BME280;45330;51.634;5.562;2024-03-08T06:38:12;101429.72;;;-0.21;100.00
59513;BME280;45330;51.634;5.562;2024-03-08T06:40:37;101418.50;;;-0.25;100.00
59513;BME280;45330;51.634;5.562;2024-03-08T06:43:03;101426.63;;;-0.15;100.00
59513;BME280;45330;51.634;5.562;2024-03-08T06:45:31;101424.78;;;-0.18;100.00
59513;BME280;45330;51.634;5.562;2024-03-08T06:47:57;101431.16;;;-0.10;100.00
59513;BME280;45330;51.634;5.562;2024-03-08T06:50:22;101411.28;;;-0.15;100.00
59513;BME280;45330;51.634;5.562;2024-03-08T06:52:47;101429.78;;;-0.02;100.00
59513;BME280;45330;51.634;5.562;2024-03-08T06:55:19;101422.28;;;0.02;100.00
59513;BME280;45330;51.634;5.562;2024-03-08T06:57:44;101421.44;;;0.03;100.00
59513;BME280;45330;51.634;5.562;2024-03-08T07:00:10;101422.47;;;0.06;100.00
59513;BME280;45330;51.634;5.562;2024-03-08T07:02:40;101426.94;;;0.10;100.00
59513;BME280;45330;51.634;5.562;2024-03-08T07:05:06;101421.09;;;0.13;100.00
59513;BME280;45330;51.634;5.562;2024-03-08T07:07:31;101418.81;;;0.19;100.00
59513;BME280;45330;51.634;5.562;2024-03-08T07:09:59;101406.72;;;0.16;100.00
59513;BME280;45330;51.634;5.562;2024-03-08T07:12:24;101423.44;;;0.28;100.00
59513;BME280;45330;51.634;5.562;2024-03-08T07:14:50;101421.19;;;0.34;100.00
59513;BME280;45330;51.634;5.562;2024-03-08T07:17:15;101425.78;;;0.41;100.00
59513;BME280;45330;51.634;5.562;2024-03-08T07:19:41;101413.84;;;0.42;100.00
59513;BME280;45330;51.634;5.562;2024-03-08T07:22:07;101423.47;;;0.47;100.00
59513;BME280;45330;51.634;5.562;2024-03-08T07:24:36;101422.81;;;0.51;100.00
59513;BME280;45330;51.634;5.562;2024-03-08T07:27:19;101415.25;;;0.55;100.00
59513;BME280;45330;51.634;5.562;2024-03-08T07:29:45;101419.75;;;0.60;100.00
59513;BME280;45330;51.634;5.562;2024-03-08T07:32:11;101411.53;;;0.67;100.00
59513;BME280;45330;51.634;5.562;2024-03-08T07:34:50;101412.56;;;0.71;100.00
59513;BME280;45330;51.634;5.562;2024-03-08T07:37:17;101408.38;;;0.73;100.00
59513;BME280;45330;51.634;5.562;2024-03-08T07:39:43;101406.88;;;0.78;100.00
59513;BME280;45330;51.634;5.562;2024-03-08T07:42:11;101408.75;;;0.82;100.00
59513;BME280;45330;51.634;5.562;2024-03-08T07:44:37;101398.69;;;0.87;100.00
59513;BME280;45330;51.634;5.562;2024-03-08T07:47:02;101407.59;;;0.95;100.00
59513;BME280;45330;51.634;5.562;2024-03-08T07:49:29;101369.47;;;0.82;100.00
59513;BME280;45330;51.634;5.562;2024-03-08T07:51:55;101390.13;;;1.06;100.00
59513;BME280;45330;51.634;5.562;2024-03-08T07:54:21;101393.94;;;1.16;100.00
59513;BME280;45330;51.634;5.562;2024-03-08T07:56:46;101391.56;;;1.20;100.00
59513;BME280;45330;51.634;5.562;2024-03-08T07:59:12;101381.47;;;1.25;100.00
59513;BME280;45330;51.634;5.562;2024-03-08T08:01:37;101389.44;;;1.31;100.00
59513;BME280;45330;51.634;5.562;2024-03-08T08:04:03;101382.03;;;1.39;100.00
59513;BME280;45330;51.634;5.562;2024-03-08T08:06:29;101368.47;;;1.42;100.00
59513;BME280;45330;51.634;5.562;2024-03-08T08:08:58;101365.53;;;1.53;100.00
59513;BME280;45330;51.634;5.562;2024-03-08T08:11:26;101358.00;;;1.58;100.00
59513;BME280;45330;51.634;5.562;2024-03-08T08:13:53;101367.84;;;1.70;100.00
59513;BME280;45330;51.634;5.562;2024-03-08T08:16:20;101376.78;;;1.80;100.00
59513;BME280;45330;51.634;5.562;2024-03-08T08:18:45;101363.13;;;1.81;100.00
59513;BME280;45330;51.634;5.562;2024-03-08T08:21:11;101364.53;;;1.95;100.00
59513;BME280;45330;51.634;5.562;2024-03-08T08:23:36;101358.75;;;2.01;100.00
59513;BME280;45330;51.634;5.562;2024-03-08T08:26:02;101356.47;;;2.09;100.00
59513;BME280;45330;51.634;5.562;2024-03-08T08:28:29;101361.81;;;2.15;100.00
59513;BME280;45330;51.634;5.562;2024-03-08T08:30:56;101348.28;;;2.19;100.00
59513;BME280;45330;51.634;5.562;2024-03-08T08:33:21;101349.44;;;2.27;100.00
59513;BME280;45330;51.634;5.562;2024-03-08T08:35:46;101343.75;;;2.36;100.00
59513;BME280;45330;51.634;5.562;2024-03-08T08:38:13;101343.94;;;2.40;100.00
59513;BME280;45330;51.634;5.562;2024-03-08T08:40:38;101333.09;;;2.49;100.00
59513;BME280;45330;51.634;5.562;2024-03-08T08:43:04;101333.53;;;2.62;100.00
59513;BME280;45330;51.634;5.562;2024-03-08T08:45:32;101332.97;;;2.70;100.00
59513;BME280;45330;51.634;5.562;2024-03-08T08:48:00;101330.44;;;2.72;100.00
59513;BME280;45330;51.634;5.562;2024-03-08T08:50:26;101328.25;;;2.83;100.00
59513;BME280;45330;51.634;5.562;2024-03-08T08:52:53;101331.16;;;2.94;100.00
59513;BME280;45330;51.634;5.562;2024-03-08T08:55:19;101330.66;;;3.04;100.00
59513;BME280;45330;51.634;5.562;2024-03-08T08:57:51;101314.47;;;3.08;100.00
59513;BME280;45330;51.634;5.562;2024-03-08T09:00:20;101320.09;;;3.23;100.00
59513;BME280;45330;51.634;5.562;2024-03-08T09:02:46;101319.50;;;3.31;100.00
59513;BME280;45330;51.634;5.562;2024-03-08T09:05:13;101312.81;;;3.37;100.00
59513;BME280;45330;51.634;5.562;2024-03-08T09:07:44;101308.94;;;3.50;100.00
59513;BME280;45330;51.634;5.562;2024-03-08T09:10:10;101299.56;;;3.52;100.00
59513;BME280;45330;51.634;5.562;2024-03-08T09:12:40;101306.88;;;3.67;100.00
59513;BME280;45330;51.634;5.562;2024-03-08T09:15:06;101299.38;;;3.75;100.00
59513;BME280;45330;51.634;5.562;2024-03-08T09:17:38;101292.75;;;3.83;100.00
59513;BME280;45330;51.634;5.562;2024-03-08T09:20:07;101282.59;;;3.89;100.00
59513;BME280;45330;51.634;5.562;2024-03-08T09:22:34;101284.63;;;4.00;100.00
59513;BME280;45330;51.634;5.562;2024-03-08T09:24:59;101281.41;;;4.07;100.00
59513;BME280;45330;51.634;5.562;2024-03-08T09:27:25;101284.16;;;4.15;100.00
59513;BME280;45330;51.634;5.562;2024-03-08T09:29:50;101278.41;;;4.23;100.00
59513;BME280;45330;51.634;5.562;2024-03-08T09:32:16;101268.28;;;4.31;100.00
59513;BME280;45330;51.634;5.562;2024-03-08T09:34:42;101264.00;;;4.32;100.00
59513;BME280;45330;51.634;5.562;2024-03-08T09:37:07;101271.16;;;4.42;100.00
59513;BME280;45330;51.634;5.562;2024-03-08T09:39:34;101260.13;;;4.47;100.00
59513;BME280;45330;51.634;5.562;2024-03-08T09:42:00;101257.00;;;4.59;100.00
59513;BME280;45330;51.634;5.562;2024-03-08T09:44:26;101246.84;;;4.66;100.00
59513;BME280;45330;51.634;5.562;2024-03-08T09:46:54;101248.00;;;4.78;100.00
59513;BME280;45330;51.634;5.562;2024-03-08T09:49:20;101243.94;;;4.88;100.00
59513;BME280;45330;51.634;5.562;2024-03-08T09:51:46;101237.09;;;4.90;100.00
59513;BME280;45330;51.634;5.562;2024-03-08T09:54:12;101229.41;;;4.92;100.00
59513;BME280;45330;51.634;5.562;2024-03-08T09:56:39;101220.00;;;4.94;100.00
59513;BME280;45330;51.634;5.562;2024-03-08T09:59:09;101222.84;;;5.06;100.00
59513;BME280;45330;51.634;5.562;2024-03-08T10:01:35;101218.78;;;5.16;100.00
59513;BME280;45330;51.634;5.562;2024-03-08T10:04:02;101204.19;;;5.17;100.00
59513;BME280;45330;51.634;5.562;2024-03-08T10:06:27;101204.34;;;5.26;100.00
59513;BME280;45330;51.634;5.562;2024-03-08T10:08:53;101195.94;;;5.33;100.00
59513;BME280;45330;51.634;5.562;2024-03-08T10:11:18;101196.13;;;5.44;100.00
59513;BME280;45330;51.634;5.562;2024-03-08T10:13:45;101188.47;;;5.47;100.00
59513;BME280;45330;51.634;5.562;2024-03-08T10:16:12;101177.44;;;5.54;100.00
59513;BME280;45330;51.634;5.562;2024-03-08T10:18:37;101172.38;;;5.60;100.00
59513;BME280;45330;51.634;5.562;2024-03-08T10:21:08;101176.03;;;5.72;100.00
59513;BME280;45330;51.634;5.562;2024-03-08T10:23:39;101169.25;;;5.75;100.00
59513;BME280;45330;51.634;5.562;2024-03-08T10:26:15;101164.25;;;5.86;100.00
59513;BME280;45330;51.634;5.562;2024-03-08T10:28:45;101166.09;;;5.92;100.00
59513;BME280;45330;51.634;5.562;2024-03-08T10:31:11;101154.22;;;6.00;100.00
59513;BME280;45330;51.634;5.562;2024-03-08T10:33:36;101156.06;;;6.07;100.00
59513;BME280;45330;51.634;5.562;2024-03-08T10:36:07;101145.00;;;6.16;100.00
59513;BME280;45330;51.634;5.562;2024-03-08T10:38:36;101150.28;;;6.22;100.00
59513;BME280;45330;51.634;5.562;2024-03-08T10:41:03;101136.53;;;6.23;100.00
59513;BME280;45330;51.634;5.562;2024-03-08T10:43:36;101141.75;;;6.28;100.00
59513;BME280;45330;51.634;5.562;2024-03-08T10:49:06;101128.13;;;6.37;100.00
59513;BME280;45330;51.634;5.562;2024-03-08T10:51:33;101129.03;;;6.40;100.00
59513;BME280;45330;51.634;5.562;2024-03-08T10:53:59;101134.31;;;6.46;100.00
59513;BME280;45330;51.634;5.562;2024-03-08T10:56:25;101123.19;;;6.52;100.00
59513;BME280;45330;51.634;5.562;2024-03-08T10:58:54;101115.38;;;6.47;100.00
59513;BME280;45330;51.634;5.562;2024-03-08T11:01:20;101117.22;;;6.58;100.00
59513;BME280;45330;51.634;5.562;2024-03-08T11:03:47;101110.44;;;6.64;100.00
59513;BME280;45330;51.634;5.562;2024-03-08T11:06:45;101094.13;;;6.70;100.00
59513;BME280;45330;51.634;5.562;2024-03-08T11:12:22;101089.34;;;6.98;100.00
59513;BME280;45330;51.634;5.562;2024-03-08T11:14:54;101060.88;;;6.96;100.00
59513;BME280;45330;51.634;5.562;2024-03-08T11:17:39;101079.09;;;7.09;100.00
59513;BME280;45330;51.634;5.562;2024-03-08T11:23:03;101071.47;;;7.19;99.00
59513;BME280;45330;51.634;5.562;2024-03-08T11:25:46;101057.81;;;7.31;100.00
59513;BME280;45330;51.634;5.562;2024-03-08T11:28:13;101059.53;;;7.34;98.61
59513;BME280;45330;51.634;5.562;2024-03-08T11:33:31;101047.50;;;7.37;96.72
59513;BME280;45330;51.634;5.562;2024-03-08T11:36:22;101031.22;;;7.48;97.56
59513;BME280;45330;51.634;5.562;2024-03-08T11:38:48;101032.94;;;7.49;96.08
59513;BME280;45330;51.634;5.562;2024-03-08T11:41:21;101042.50;;;7.56;97.17
59513;BME280;45330;51.634;5.562;2024-03-08T11:43:49;101048.63;;;7.61;98.13
59513;BME280;45330;51.634;5.562;2024-03-08T11:46:16;101005.28;;;7.45;98.06
59513;BME280;45330;51.634;5.562;2024-03-08T11:48:42;101038.38;;;7.73;98.99
59513;BME280;45330;51.634;5.562;2024-03-08T11:51:12;101024.59;;;7.81;95.96
59513;BME280;45330;51.634;5.562;2024-03-08T11:53:39;101020.25;;;7.77;94.33
59513;BME280;45330;51.634;5.562;2024-03-08T11:56:10;101021.16;;;7.82;94.54
59513;BME280;45330;51.634;5.562;2024-03-08T11:58:37;101026.38;;;7.88;96.83
59513;BME280;45330;51.634;5.562;2024-03-08T12:01:06;101014.34;;;7.95;94.11
59513;BME280;45330;51.634;5.562;2024-03-08T12:03:32;101013.56;;;8.03;91.09
59513;BME280;45330;51.634;5.562;2024-03-08T12:06:01;101014.41;;;8.02;92.74
59513;BME280;45330;51.634;5.562;2024-03-08T12:08:30;101006.66;;;8.07;92.17
59513;BME280;45330;51.634;5.562;2024-03-08T12:10:56;100998.94;;;8.18;91.58
59513;BME280;45330;51.634;5.562;2024-03-08T12:13:32;101003.31;;;8.30;91.38
59513;BME280;45330;51.634;5.562;2024-03-08T12:16:02;100992.13;;;8.32;88.30
59513;BME280;45330;51.634;5.562;2024-03-08T12:18:33;100991.25;;;8.32;89.02
59513;BME280;45330;51.634;5.562;2024-03-08T12:21:10;100987.84;;;8.39;91.19
59513;BME280;45330;51.634;5.562;2024-03-08T12:23:38;100984.41;;;8.41;89.50
59513;BME280;45330;51.634;5.562;2024-03-08T12:26:23;100991.31;;;8.43;87.26
59513;BME280;45330;51.634;5.562;2024-03-08T12:28:49;100984.38;;;8.38;86.41
59513;BME280;45330;51.634;5.562;2024-03-08T12:31:16;100965.34;;;8.35;87.32
59513;BME280;45330;51.634;5.562;2024-03-08T12:33:53;100974.91;;;8.45;87.40
59513;BME280;45330;51.634;5.562;2024-03-08T12:36:19;100974.09;;;8.51;86.68
59513;BME280;45330;51.634;5.562;2024-03-08T12:38:49;100963.69;;;8.49;86.49
59513;BME280;45330;51.634;5.562;2024-03-08T12:41:15;100964.59;;;8.54;84.53
59513;BME280;45330;51.634;5.562;2024-03-08T12:43:42;100961.16;;;8.55;84.47
59513;BME280;45330;51.634;5.562;2024-03-08T12:46:09;100957.72;;;8.60;86.25
59513;BME280;45330;51.634;5.562;2024-03-08T12:48:35;100949.09;;;8.62;84.30
59513;BME280;45330;51.634;5.562;2024-03-08T12:51:01;100949.09;;;8.67;83.90
59513;BME280;45330;51.634;5.562;2024-03-08T12:53:26;100944.75;;;8.64;83.57
59513;BME280;45330;51.634;5.562;2024-03-08T12:55:54;100937.81;;;8.52;82.73
59513;BME280;45330;51.634;5.562;2024-03-08T12:58:21;100934.38;;;8.58;83.19
59513;BME280;45330;51.634;5.562;2024-03-08T13:00:47;100924.00;;;8.56;83.32